Time;durP1;ratioP1;P1;durP2;ratioP2;P2;SDS_P1;SDS_P2;PMS_P1;PMS_P2;Temp;Humidity;BMP_temperature;BMP_pressure;BME280_temperature;BME280_humidity;BME280_pressure;Samples;Min_cycle;Max_cycle;Signal;HPM_P1;HPM_P2
2021/06/25 00:01:43;;;;;;;4.50;3.88;;;17.70;99.90;;;;;;6225215;28;20081;-78
2021/06/25 00:04:45;;;;;;;4.18;3.78;;;17.80;99.90;;;;;;6224020;28;20046;-78
2021/06/25 00:07:48;;;;;;;12.25;5.00;;;17.80;99.90;;;;;;6223801;28;20547;-79
2021/06/25 00:10:50;;;;;;;5.10;3.78;;;17.70;99.90;;;;;;6224428;28;20124;-78
2021/06/25 00:13:53;;;;;;;6.28;3.83;;;17.80;99.90;;;;;;6224234;28;20056;-78
2021/06/25 00:16:55;;;;;;;3.97;3.30;;;17.80;99.90;;;;;;6224895;28;20058;-78
2021/06/25 00:19:57;;;;;;;5.53;3.53;;;17.90;99.90;;;;;;6223928;28;20108;-78
2021/06/25 00:23:00;;;;;;;4.70;4.07;;;17.90;99.90;;;;;;6223853;28;20081;-78
2021/06/25 00:26:02;;;;;;;4.15;3.38;;;17.90;99.90;;;;;;6223582;28;20061;-78
2021/06/25 00:29:04;;;;;;;6.20;4.97;;;17.90;99.90;;;;;;6224276;28;20151;-78
2021/06/25 00:32:07;;;;;;;3.80;3.40;;;17.90;99.90;;;;;;6224221;28;20123;-78
2021/06/25 00:35:10;;;;;;;4.53;4.13;;;17.90;99.90;;;;;;6223945;28;20073;-78
2021/06/25 00:38:13;;;;;;;3.20;2.97;;;17.90;99.90;;;;;;6223620;28;20073;-78
2021/06/25 00:41:15;;;;;;;3.63;3.33;;;17.90;99.90;;;;;;6224304;28;20058;-78
2021/06/25 00:44:18;;;;;;;3.78;3.47;;;17.90;99.90;;;;;;6222527;28;20105;-76
2021/06/25 00:47:20;;;;;;;3.50;3.10;;;17.90;99.90;;;;;;6222602;28;20049;-76
2021/06/25 00:50:23;;;;;;;3.28;2.65;;;17.90;99.90;;;;;;6222008;28;20581;-76
2021/06/25 00:53:28;;;;;;;5.07;3.50;;;17.90;99.90;;;;;;6222996;28;20084;-76
2021/06/25 00:56:30;;;;;;;5.38;4.03;;;17.80;99.90;;;;;;6221404;28;20046;-76
2021/06/25 00:59:33;;;;;;;4.50;4.07;;;17.80;99.90;;;;;;6217601;28;20085;-76
2021/06/25 01:02:35;;;;;;;4.95;4.18;;;17.80;99.90;;;;;;6222217;28;20432;-76
2021/06/25 01:05:38;;;;;;;5.95;4.22;;;17.80;99.90;;;;;;6216319;28;20706;-77
2021/06/25 01:08:42;;;;;;;6.38;4.80;;;17.70;99.90;;;;;;6221005;28;20506;-76
2021/06/25 01:11:44;;;;;;;4.05;3.75;;;17.70;99.90;;;;;;6221060;28;20046;-77
2021/06/25 01:14:46;;;;;;;4.22;3.92;;;17.70;99.90;;;;;;6222026;28;20076;-77
2021/06/25 01:17:48;;;;;;;5.25;4.75;;;17.60;99.90;;;;;;6221456;28;20508;-76
2021/06/25 01:20:50;;;;;;;5.05;4.47;;;17.60;99.90;;;;;;6221964;28;20056;-76
2021/06/25 01:23:53;;;;;;;8.32;4.07;;;17.50;99.90;;;;;;6221696;28;20073;-78
2021/06/25 01:26:55;;;;;;;5.97;5.45;;;17.50;99.90;;;;;;6221824;28;20088;-76
2021/06/25 01:29:58;;;;;;;8.02;5.43;;;17.50;99.90;;;;;;6221267;28;20132;-77
2021/06/25 01:33:02;;;;;;;5.90;5.40;;;17.50;99.90;;;;;;6221935;28;20083;-76
2021/06/25 01:36:05;;;;;;;6.22;5.55;;;17.50;99.90;;;;;;6220996;28;20119;-77
2021/06/25 01:39:08;;;;;;;10.05;6.20;;;17.40;99.90;;;;;;6221031;28;20492;-76
2021/06/25 01:42:11;;;;;;;9.77;6.47;;;17.40;99.90;;;;;;6221522;28;20134;-76
2021/06/25 01:45:16;;;;;;;8.70;6.45;;;17.40;99.90;;;;;;6221384;28;20506;-76
2021/06/25 01:48:18;;;;;;;18.35;7.57;;;17.40;99.90;;;;;;6220830;28;20589;-76
2021/06/25 01:51:19;;;;;;;8.85;6.97;;;17.40;99.90;;;;;;6220781;28;20131;-76
2021/06/25 01:54:23;;;;;;;7.13;6.47;;;17.40;99.90;;;;;;6220933;28;20088;-76
2021/06/25 01:57:25;;;;;;;10.23;6.60;;;17.40;99.90;;;;;;6251713;22;20647;-78
2021/06/25 02:00:27;;;;;;;11.18;7.95;;;17.30;99.90;;;;;;6253534;28;20071;-78
2021/06/25 02:03:29;;;;;;;12.00;9.25;;;17.30;99.90;;;;;;6254503;28;20049;-78
2021/06/25 02:06:30;;;;;;;17.08;11.90;;;17.30;99.90;;;;;;6256083;28;20056;-77
2021/06/25 02:09:34;;;;;;;11.98;10.25;;;17.30;99.90;;;;;;6258658;28;20056;-79
2021/06/25 02:12:36;;;;;;;16.52;10.82;;;17.30;99.90;;;;;;6253044;28;20501;-79
2021/06/25 02:15:38;;;;;;;14.90;10.77;;;17.30;99.90;;;;;;6255271;28;20045;-77
2021/06/25 02:18:40;;;;;;;15.13;10.25;;;17.30;99.90;;;;;;6256068;28;20042;-77
2021/06/25 02:21:42;;;;;;;14.48;10.85;;;17.30;99.90;;;;;;6254789;28;20057;-77
2021/06/25 02:24:45;;;;;;;14.80;11.07;;;17.30;99.90;;;;;;6258780;28;20510;-79
2021/06/25 02:27:47;;;;;;;16.50;11.05;;;17.30;99.90;;;;;;6260708;28;20049;-79
2021/06/25 02:30:49;;;;;;;13.95;10.43;;;17.30;99.90;;;;;;6259781;28;20049;-78
2021/06/25 02:33:51;;;;;;;14.25;12.68;;;17.30;99.90;;;;;;6258239;28;20487;-77
2021/06/25 02:36:53;;;;;;;15.32;10.25;;;17.30;99.90;;;;;;6235206;28;20046;-76
2021/06/25 02:39:56;;;;;;;15.85;12.23;;;17.30;99.90;;;;;;6251718;28;20115;-78
2021/06/25 02:42:58;;;;;;;14.52;11.55;;;17.30;99.90;;;;;;6260159;28;20465;-79
2021/06/25 02:46:00;;;;;;;18.20;13.32;;;17.30;99.90;;;;;;6257808;28;20052;-78
2021/06/25 02:49:02;;;;;;;15.98;12.13;;;17.20;99.90;;;;;;6235369;28;20054;-77
2021/06/25 02:52:05;;;;;;;16.92;11.90;;;17.20;99.90;;;;;;6235504;28;20060;-78
2021/06/25 02:55:10;;;;;;;18.15;12.50;;;17.20;99.90;;;;;;6246158;28;20099;-78
2021/06/25 02:58:12;;;;;;;15.93;12.25;;;17.10;99.90;;;;;;6254527;28;20054;-77
2021/06/25 03:01:14;;;;;;;21.30;13.52;;;17.10;99.90;;;;;;6233751;28;20049;-78
2021/06/25 03:04:15;;;;;;;22.25;13.77;;;17.10;99.90;;;;;;6253017;28;20045;-77
2021/06/25 03:07:17;;;;;;;19.63;14.25;;;17.00;99.90;;;;;;6256859;28;20103;-77
2021/06/25 03:10:21;;;;;;;20.55;13.50;;;17.00;99.90;;;;;;6260256;28;20096;-77
2021/06/25 03:13:23;;;;;;;24.00;14.63;;;17.00;99.90;;;;;;6255558;28;20088;-78
2021/06/25 03:16:24;;;;;;;20.48;12.27;;;16.90;99.90;;;;;;6256494;28;20046;-76
2021/06/25 03:19:26;;;;;;;24.73;15.80;;;17.00;99.90;;;;;;6243386;28;20462;-78
2021/06/25 03:22:28;;;;;;;26.55;14.60;;;17.00;99.90;;;;;;6231528;28;20046;-78
2021/06/25 03:25:32;;;;;;;22.80;15.27;;;17.00;99.90;;;;;;6231891;28;20111;-77
2021/06/25 03:28:34;;;;;;;26.23;15.15;;;17.00;99.90;;;;;;6230878;28;20061;-78
2021/06/25 03:31:35;;;;;;;29.23;15.88;;;17.00;99.90;;;;;;6229187;28;20042;-76
2021/06/25 03:34:37;;;;;;;26.02;15.70;;;17.00;99.90;;;;;;6228648;28;20042;-78
2021/06/25 03:37:39;;;;;;;21.70;14.65;;;17.10;99.90;;;;;;6232877;28;20045;-79
2021/06/25 03:40:43;;;;;;;15.10;11.05;;;17.20;99.90;;;;;;6233353;28;20046;-79
2021/06/25 03:43:45;;;;;;;22.55;12.52;;;17.20;99.90;;;;;;6233979;28;20042;-76
2021/06/25 03:46:46;;;;;;;19.17;13.77;;;17.20;99.90;;;;;;6233584;28;20045;-77
2021/06/25 03:49:48;;;;;;;20.00;13.48;;;17.20;99.90;;;;;;6236963;28;20050;-78
2021/06/25 03:52:50;;;;;;;30.45;13.63;;;17.20;99.90;;;;;;6234733;28;20053;-78
2021/06/25 03:56:11;;;;;;;29.98;16.10;;;17.10;99.90;;;;;;6234147;28;20137;-78
2021/06/25 03:59:13;;;;;;;25.55;14.48;;;17.20;99.90;;;;;;6236264;28;20050;-77
2021/06/25 04:02:15;;;;;;;21.38;13.13;;;17.30;99.90;;;;;;6231679;28;20050;-77
2021/06/25 04:05:17;;;;;;;21.15;14.52;;;17.40;99.90;;;;;;6228750;28;20065;-77
2021/06/25 04:08:19;;;;;;;20.75;13.63;;;17.50;99.90;;;;;;6230511;28;20587;-77
2021/06/25 04:11:22;;;;;;;23.17;13.30;;;17.70;99.90;;;;;;6239946;28;20156;-77
2021/06/25 04:14:24;;;;;;;23.95;14.70;;;17.70;99.90;;;;;;6248012;28;20572;-77
2021/06/25 04:17:26;;;;;;;22.45;15.40;;;17.60;99.90;;;;;;6248254;28;20057;-76
2021/06/25 04:20:28;;;;;;;28.90;18.35;;;17.50;99.90;;;;;;6247819;28;20111;-77
2021/06/25 04:23:30;;;;;;;30.48;18.08;;;17.40;99.90;;;;;;6249663;28;20061;-77
2021/06/25 04:26:35;;;;;;;35.90;19.92;;;17.40;99.90;;;;;;6248508;28;20131;-77
2021/06/25 04:29:37;;;;;;;36.75;19.63;;;17.40;99.90;;;;;;6248484;28;20053;-77
2021/06/25 04:32:39;;;;;;;48.90;21.80;;;17.30;99.90;;;;;;6247821;28;20046;-77
2021/06/25 04:35:42;;;;;;;41.95;18.98;;;17.20;99.90;;;;;;6248082;28;20057;-77
2021/06/25 04:38:44;;;;;;;57.00;26.25;;;17.20;99.90;;;;;;6247558;28;20600;-76
2021/06/25 04:41:47;;;;;;;57.20;25.13;;;17.20;99.90;;;;;;6247637;28;20088;-77
2021/06/25 04:44:49;;;;;;;59.35;26.20;;;17.10;99.90;;;;;;6247520;28;20088;-76
2021/06/25 04:47:51;;;;;;;50.47;22.23;;;17.00;99.90;;;;;;6247549;28;20100;-76
2021/06/25 04:50:53;;;;;;;68.50;28.58;;;17.00;99.90;;;;;;6246774;28;20511;-76
2021/06/25 04:53:55;;;;;;;74.78;27.58;;;17.10;99.90;;;;;;6246193;28;20491;-76
2021/06/25 04:56:58;;;;;;;57.85;27.60;;;17.10;99.90;;;;;;6247319;28;20073;-76
2021/06/25 05:00:00;;;;;;;66.75;28.23;;;17.10;99.90;;;;;;6246470;28;20049;-76
2021/06/25 05:03:02;;;;;;;76.93;29.85;;;17.10;99.90;;;;;;6246938;28;20068;-76
2021/06/25 05:06:04;;;;;;;70.82;31.38;;;17.00;99.90;;;;;;6246805;28;20136;-76
2021/06/25 05:09:06;;;;;;;74.65;31.92;;;17.00;99.90;;;;;;6244958;28;20092;-76
2021/06/25 05:12:10;;;;;;;79.18;32.55;;;17.00;99.90;;;;;;6229381;28;20495;-76
2021/06/25 05:15:13;;;;;;;71.35;31.73;;;17.10;99.90;;;;;;6224229;28;20578;-76
2021/06/25 05:18:16;;;;;;;72.35;31.42;;;17.10;99.90;;;;;;6225842;28;20092;-77
2021/06/25 05:21:18;;;;;;;80.32;32.15;;;17.00;99.90;;;;;;6247009;28;20135;-76
2021/06/25 05:24:20;;;;;;;78.13;34.28;;;17.00;99.90;;;;;;6246288;28;20048;-76
2021/06/25 05:27:24;;;;;;;67.30;29.20;;;17.00;99.90;;;;;;6246245;28;20068;-76
2021/06/25 05:30:26;;;;;;;84.05;34.85;;;17.10;99.90;;;;;;6246086;28;20122;-77
2021/06/25 05:33:28;;;;;;;75.05;33.95;;;17.10;99.90;;;;;;6246392;28;20088;-76
2021/06/25 05:36:30;;;;;;;62.00;27.92;;;17.10;99.90;;;;;;6246102;28;20526;-76
2021/06/25 05:39:31;;;;;;;79.18;31.13;;;17.10;99.90;;;;;;6245830;28;20048;-76
2021/06/25 05:42:35;;;;;;;64.40;31.02;;;17.10;99.90;;;;;;6246264;28;20083;-76
2021/06/25 05:45:38;;;;;;;75.38;31.92;;;17.10;99.90;;;;;;6245997;28;20564;-76
2021/06/25 05:48:40;;;;;;;69.28;30.25;;;17.00;99.90;;;;;;6245698;28;20041;-76
2021/06/25 05:51:42;;;;;;;80.68;31.95;;;17.00;99.90;;;;;;6245875;28;20503;-76
2021/06/25 05:54:44;;;;;;;63.38;29.63;;;17.00;99.90;;;;;;6245698;28;20072;-76
2021/06/25 05:57:48;;;;;;;70.38;30.48;;;17.00;99.90;;;;;;6244985;28;20101;-76
2021/06/25 06:00:50;;;;;;;63.22;27.65;;;17.00;99.90;;;;;;6245386;28;20076;-76
2021/06/25 06:03:52;;;;;;;55.83;25.67;;;17.00;99.90;;;;;;6238302;28;20117;-76
2021/06/25 06:06:53;;;;;;;48.78;24.27;;;17.00;99.90;;;;;;6237931;28;20332;-76
2021/06/25 06:09:55;;;;;;;58.53;22.23;;;17.00;99.90;;;;;;6244815;28;20711;-76
2021/06/25 06:12:59;;;;;;;35.10;20.33;;;17.00;99.90;;;;;;6232476;28;20457;-76
2021/06/25 06:16:01;;;;;;;34.75;17.20;;;17.00;99.90;;;;;;6245413;28;20519;-76
2021/06/25 06:19:04;;;;;;;33.83;17.40;;;17.00;99.90;;;;;;6244915;28;20142;-77
2021/06/25 06:32:15;;;;;;;18.35;10.55;;;17.20;99.90;;;;;;6270036;28;20049;-76
2021/06/25 06:35:17;;;;;;;20.23;12.55;;;17.20;99.90;;;;;;6269568;28;20052;-76
2021/06/25 06:38:20;;;;;;;13.27;9.10;;;17.20;99.90;;;;;;6269023;28;20068;-76
2021/06/25 06:41:22;;;;;;;10.73;8.70;;;17.20;99.90;;;;;;6245188;28;20463;-76
2021/06/25 06:44:25;;;;;;;13.25;8.10;;;17.20;99.90;;;;;;6244594;28;20088;-76
2021/06/25 06:47:27;;;;;;;14.15;8.50;;;17.20;99.90;;;;;;6231261;28;20070;-75
2021/06/25 06:50:29;;;;;;;11.38;8.57;;;17.20;99.90;;;;;;6220198;28;20038;-76
2021/06/25 06:53:30;;;;;;;10.25;7.00;;;17.10;99.90;;;;;;6221251;28;20049;-76
2021/06/25 06:56:32;;;;;;;10.50;7.32;;;17.10;99.90;;;;;;6220118;28;20415;-76
2021/06/25 06:59:36;;;;;;;23.30;10.05;;;17.00;99.90;;;;;;6222253;28;20183;-77
2021/06/25 07:02:38;;;;;;;7.97;6.30;;;17.10;99.90;;;;;;6221254;28;20523;-77
2021/06/25 07:05:40;;;;;;;7.68;6.15;;;17.00;99.90;;;;;;6220725;28;20081;-77
2021/06/25 07:08:42;;;;;;;5.80;5.22;;;17.00;99.90;;;;;;6221499;28;20068;-77
2021/06/25 07:11:43;;;;;;;10.52;6.28;;;17.00;99.90;;;;;;6224073;28;20176;-77
2021/06/25 07:14:47;;;;;;;6.43;4.63;;;16.90;99.90;;;;;;6205926;28;20077;-77
2021/06/25 07:17:49;;;;;;;7.63;5.32;;;16.90;99.90;;;;;;6200434;28;20173;-76
2021/06/25 07:20:50;;;;;;;8.52;6.07;;;16.90;99.90;;;;;;6201337;28;20145;-77
2021/06/25 07:23:52;;;;;;;6.32;5.00;;;16.90;99.90;;;;;;6200325;28;20637;-77
2021/06/25 07:26:54;;;;;;;4.95;4.43;;;17.00;99.90;;;;;;6201686;28;20512;-78
2021/06/25 07:29:57;;;;;;;7.10;5.20;;;17.00;99.90;;;;;;6201042;28;20062;-77
2021/06/25 07:33:00;;;;;;;8.73;4.28;;;17.00;99.90;;;;;;6200809;28;20460;-77
2021/06/25 07:36:01;;;;;;;5.13;4.28;;;17.10;99.90;;;;;;6200120;28;20128;-77
2021/06/25 07:39:06;;;;;;;8.65;5.07;;;17.10;99.90;;;;;;6201948;28;20046;-78
2021/06/25 07:42:08;;;;;;;4.80;3.97;;;17.10;99.90;;;;;;6200520;28;20050;-75
2021/06/25 07:45:12;;;;;;;7.75;5.82;;;17.20;99.90;;;;;;6200684;28;20089;-75
2021/06/25 07:48:15;;;;;;;6.85;5.43;;;17.20;99.90;;;;;;6199591;28;20522;-75
2021/06/25 07:51:17;;;;;;;7.15;6.10;;;17.10;99.90;;;;;;6200032;28;20073;-76
2021/06/25 07:54:20;;;;;;;8.43;6.38;;;17.00;99.90;;;;;;6200237;28;20068;-76
2021/06/25 07:57:22;;;;;;;8.35;6.07;;;17.00;99.90;;;;;;6204932;28;20056;-76
2021/06/25 08:00:25;;;;;;;9.18;6.78;;;17.00;99.90;;;;;;6224871;28;20454;-76
2021/06/25 08:03:27;;;;;;;9.35;6.07;;;16.90;99.90;;;;;;6223772;28;20503;-76
2021/06/25 08:06:29;;;;;;;7.15;5.68;;;17.00;99.90;;;;;;6224683;28;20392;-76
2021/06/25 08:09:31;;;;;;;10.45;7.18;;;17.00;99.90;;;;;;6224330;28;20168;-76
2021/06/25 08:12:33;;;;;;;12.73;6.55;;;17.00;99.90;;;;;;6223036;28;20050;-76
2021/06/25 08:15:36;;;;;;;9.05;6.47;;;17.00;99.90;;;;;;6212608;28;20124;-76
2021/06/25 08:18:38;;;;;;;11.98;7.03;;;17.10;99.90;;;;;;6223245;28;20056;-76
2021/06/25 08:21:40;;;;;;;9.45;6.82;;;17.10;99.90;;;;;;6223230;28;20140;-76
2021/06/25 08:24:41;;;;;;;10.43;8.70;;;17.20;99.90;;;;;;6223148;28;20089;-76
2021/06/25 08:27:43;;;;;;;10.45;8.07;;;17.40;99.90;;;;;;6223520;28;20120;-76
2021/06/25 08:30:47;;;;;;;9.65;7.60;;;17.50;99.90;;;;;;6222896;28;20069;-77
2021/06/25 08:33:49;;;;;;;11.15;7.97;;;17.50;99.90;;;;;;6223012;28;20104;-75
2021/06/25 08:36:51;;;;;;;18.85;9.10;;;17.50;99.90;;;;;;6223359;28;20451;-76
2021/06/25 08:39:52;;;;;;;9.18;7.45;;;17.60;99.90;;;;;;6222432;28;20050;-76
2021/06/25 08:42:54;;;;;;;9.75;8.48;;;17.60;99.90;;;;;;6222696;28;20407;-76
2021/06/25 08:45:59;;;;;;;10.48;8.75;;;17.50;99.90;;;;;;6224219;28;20103;-77
2021/06/25 08:49:04;;;;;;;10.80;7.88;;;17.50;99.90;;;;;;6247368;28;20053;-77
2021/06/25 08:52:07;;;;;;;11.77;7.88;;;17.50;99.90;;;;;;6247596;28;20049;-77
2021/06/25 08:55:09;;;;;;;9.40;6.72;;;17.40;99.90;;;;;;6246975;28;20491;-75
2021/06/25 08:58:13;;;;;;;11.68;8.73;;;17.40;99.90;;;;;;6246841;28;20084;-76
2021/06/25 09:01:18;;;;;;;11.77;9.23;;;17.50;99.90;;;;;;6246811;28;20095;-76
2021/06/25 09:04:34;;;;;;;12.70;9.50;;;17.40;99.90;;;;;;6246686;28;20447;-77
2021/06/25 09:07:44;;;;;;;7.75;6.68;;;17.40;99.90;;;;;;6246382;28;20129;-76
2021/06/25 09:10:46;;;;;;;8.50;6.97;;;17.30;99.90;;;;;;6246466;28;20129;-76
2021/06/25 09:13:55;;;;;;;11.50;8.23;;;17.10;99.90;;;;;;6238162;28;20104;-77
2021/06/25 09:17:03;;;;;;;7.38;6.60;;;17.10;99.90;;;;;;6241316;28;20079;-76
2021/06/25 09:20:06;;;;;;;7.03;6.30;;;17.20;99.90;;;;;;6246301;28;20124;-76
2021/06/25 09:23:10;;;;;;;9.23;6.88;;;17.30;99.90;;;;;;6246393;28;20045;-77
2021/06/25 09:26:13;;;;;;;11.68;8.20;;;17.50;99.90;;;;;;6246263;28;20075;-77
2021/06/25 09:29:16;;;;;;;8.07;7.22;;;17.70;99.90;;;;;;6246394;28;20053;-77
2021/06/25 09:32:19;;;;;;;10.55;8.30;;;17.70;99.90;;;;;;6245165;28;20085;-76
2021/06/25 09:35:24;;;;;;;8.80;7.72;;;17.70;99.90;;;;;;6246235;28;20103;-76
2021/06/25 09:38:34;;;;;;;9.85;7.78;;;17.70;99.90;;;;;;6245758;28;20518;-77
2021/06/25 09:41:37;;;;;;;9.93;8.70;;;17.60;99.90;;;;;;6246565;28;20132;-76
2021/06/25 09:44:39;;;;;;;14.05;9.05;;;17.50;99.90;;;;;;6245762;28;20128;-77
2021/06/25 09:47:44;;;;;;;15.02;10.73;;;17.30;99.90;;;;;;6245442;28;20088;-77
2021/06/25 09:50:46;;;;;;;13.15;10.32;;;17.30;99.90;;;;;;6245782;28;20045;-76
2021/06/25 09:54:09;;;;;;;14.23;11.45;;;17.40;99.90;;;;;;6245578;28;20070;-76
2021/06/25 09:57:11;;;;;;;15.90;10.98;;;17.40;99.90;;;;;;6246048;28;20045;-77
2021/06/25 10:00:22;;;;;;;15.95;11.10;;;17.50;99.90;;;;;;6245019;28;20104;-77
2021/06/25 10:03:25;;;;;;;14.55;11.82;;;17.60;99.90;;;;;;6245529;28;20041;-76
2021/06/25 10:06:28;;;;;;;17.65;11.68;;;17.70;99.90;;;;;;6245347;28;20118;-77
2021/06/25 10:09:30;;;;;;;23.45;15.05;;;17.70;99.90;;;;;;6245584;28;20122;-77
2021/06/25 10:12:32;;;;;;;15.43;13.13;;;17.70;99.90;;;;;;6245395;28;20076;-77
2021/06/25 10:15:37;;;;;;;18.42;14.27;;;17.80;99.90;;;;;;6215468;28;20508;-77
2021/06/25 10:18:42;;;;;;;19.83;12.88;;;17.90;99.90;;;;;;6203285;28;20522;-77
2021/06/25 10:21:44;;;;;;;22.30;14.85;;;18.00;99.90;;;;;;6221538;28;20061;-77
2021/06/25 10:24:50;;;;;;;21.00;15.77;;;18.10;99.90;;;;;;6196522;28;20060;-77
2021/06/25 10:27:53;;;;;;;17.00;14.15;;;18.10;99.90;;;;;;6196339;28;20133;-77
2021/06/25 10:30:55;;;;;;;21.95;14.45;;;18.20;99.90;;;;;;6196213;28;20054;-77
2021/06/25 10:33:58;;;;;;;19.65;14.88;;;18.10;99.90;;;;;;6196633;28;20058;-76
2021/06/25 10:37:03;;;;;;;19.77;14.80;;;18.10;99.90;;;;;;6196331;28;20468;-76
2021/06/25 10:40:20;;;;;;;19.00;15.60;;;18.00;99.90;;;;;;6196272;28;20058;-76
2021/06/25 10:43:44;;;;;;;22.85;17.13;;;17.90;99.90;;;;;;6197724;28;20536;-77
2021/06/25 10:46:49;;;;;;;24.67;19.65;;;18.00;99.90;;;;;;6201315;28;20519;-76
2021/06/25 10:50:28;;;;;;;29.83;19.95;;;17.90;99.90;;;;;;6201210;28;20057;-76
2021/06/25 10:53:31;;;;;;;29.60;19.77;;;18.00;99.90;;;;;;6201862;28;20061;-76
2021/06/25 10:56:33;;;;;;;21.15;18.52;;;18.20;99.90;;;;;;6223974;28;20081;-77
2021/06/25 10:59:45;;;;;;;29.35;20.55;;;18.40;99.90;;;;;;6225034;28;20422;-76
2021/06/25 11:02:48;;;;;;;20.42;17.40;;;18.60;99.90;;;;;;6225261;28;20037;-77
2021/06/25 11:05:50;;;;;;;21.50;17.27;;;18.90;99.90;;;;;;6225171;28;20129;-77
2021/06/25 11:09:03;;;;;;;16.95;15.15;;;19.20;99.90;;;;;;6224817;28;20128;-77
2021/06/25 11:12:22;;;;;;;17.27;14.65;;;19.50;99.90;;;;;;6225350;28;20041;-77
2021/06/25 11:15:32;;;;;;;18.02;16.08;;;19.70;99.90;;;;;;6248873;28;20548;-77
2021/06/25 11:18:44;;;;;;;16.60;14.90;;;20.00;99.90;;;;;;6234597;28;20125;-77
2021/06/25 11:21:46;;;;;;;18.88;15.82;;;20.30;99.90;;;;;;6225316;28;20049;-77
2021/06/25 11:24:50;;;;;;;19.50;15.75;;;20.40;99.90;;;;;;6224894;28;20426;-77
2021/06/25 11:28:31;;;;;;;17.90;15.75;;;20.60;99.90;;;;;;6224562;28;20042;-77
2021/06/25 11:31:33;;;;;;;20.42;16.70;;;20.90;99.90;;;;;;6224385;28;20446;-77
2021/06/25 11:34:35;;;;;;;20.00;17.38;;;20.90;99.90;;;;;;6224297;28;20574;-77
2021/06/25 11:37:58;;;;;;;22.05;18.85;;;20.60;99.90;;;;;;6224724;28;20103;-77
2021/06/25 11:41:01;;;;;;;19.25;16.45;;;20.60;99.90;;;;;;6224477;28;20064;-77
2021/06/25 11:44:06;;;;;;;18.80;16.85;;;20.60;99.90;;;;;;6224541;28;20141;-77
2021/06/25 11:47:11;;;;;;;26.13;19.02;;;20.80;99.90;;;;;;6224538;28;20048;-76
2021/06/25 11:50:21;;;;;;;26.40;18.13;;;21.00;99.90;;;;;;6224094;28;20119;-77
2021/06/25 11:53:23;;;;;;;26.85;18.77;;;21.20;99.90;;;;;;6224936;28;20057;-76
2021/06/25 11:56:26;;;;;;;22.63;19.85;;;21.50;99.50;;;;;;6222763;28;20153;-76
2021/06/25 11:59:28;;;;;;;21.35;18.08;;;21.70;98.50;;;;;;6224275;28;20065;-77
2021/06/25 12:02:41;;;;;;;26.60;20.13;;;22.00;97.40;;;;;;6224031;28;20069;-77
2021/06/25 12:05:45;;;;;;;21.58;16.92;;;22.00;96.10;;;;;;6224156;28;20514;-77
2021/06/25 12:08:55;;;;;;;19.08;16.63;;;21.90;96.60;;;;;;6205404;28;20054;-77
2021/06/25 12:11:59;;;;;;;20.02;17.92;;;21.90;96.30;;;;;;6234114;28;20580;-77
2021/06/25 12:15:03;;;;;;;30.85;22.63;;;21.90;95.60;;;;;;6248394;28;20049;-78
2021/06/25 12:18:05;;;;;;;22.23;19.92;;;22.00;95.90;;;;;;6230284;28;20411;-76
2021/06/25 12:21:09;;;;;;;25.27;21.33;;;22.30;94.30;;;;;;6223759;28;20085;-77
2021/06/25 12:24:11;;;;;;;22.38;18.50;;;22.30;93.60;;;;;;6223624;28;20629;-77
2021/06/25 12:27:14;;;;;;;22.38;18.23;;;22.40;93.00;;;;;;6223872;28;20629;-77
2021/06/25 12:30:18;;;;;;;20.85;18.08;;;22.70;93.00;;;;;;6222892;28;20116;-77
2021/06/25 12:33:22;;;;;;;23.90;18.23;;;23.00;90.90;;;;;;6223494;28;20072;-76
2021/06/25 12:36:24;;;;;;;19.35;15.45;;;23.20;90.10;;;;;;6222804;28;20053;-77
2021/06/25 12:39:28;;;;;;;18.90;16.38;;;23.30;90.00;;;;;;6222476;28;20133;-76
2021/06/25 12:42:32;;;;;;;19.27;16.00;;;23.40;89.70;;;;;;6223357;28;20419;-78
2021/06/25 12:45:52;;;;;;;21.95;17.20;;;23.60;86.90;;;;;;6223648;28;20108;-77
2021/06/25 12:48:56;;;;;;;18.48;16.13;;;23.60;85.00;;;;;;6222884;28;20193;-77
2021/06/25 12:51:57;;;;;;;18.98;14.98;;;23.60;85.00;;;;;;6223404;28;20049;-77
2021/06/25 12:54:59;;;;;;;15.65;13.05;;;23.80;82.30;;;;;;6222485;28;20129;-77
2021/06/25 12:58:03;;;;;;;15.13;13.35;;;24.00;79.30;;;;;;6222610;28;20089;-77
2021/06/25 13:01:05;;;;;;;17.27;13.07;;;24.10;79.10;;;;;;6222143;28;20220;-76
2021/06/25 13:04:19;;;;;;;13.23;11.90;;;24.20;74.10;;;;;;6222458;28;20061;-77
2021/06/25 13:07:22;;;;;;;15.23;13.32;;;24.40;75.40;;;;;;6222406;28;20045;-77
2021/06/25 13:10:26;;;;;;;14.85;11.98;;;24.60;75.90;;;;;;6222218;28;20050;-77
2021/06/25 13:13:30;;;;;;;12.60;11.35;;;24.60;73.90;;;;;;6222856;28;20168;-75
2021/06/25 13:16:32;;;;;;;16.58;12.68;;;24.60;73.10;;;;;;6245210;28;20053;-76
2021/06/25 13:19:40;;;;;;;13.43;12.00;;;24.60;72.60;;;;;;6236298;28;20132;-76
2021/06/25 13:22:46;;;;;;;14.50;11.82;;;24.50;72.50;;;;;;6246934;28;20041;-76
2021/06/25 13:25:53;;;;;;;18.33;13.82;;;24.50;72.30;;;;;;6246574;28;20132;-76
2021/06/25 13:28:57;;;;;;;12.75;11.52;;;24.50;72.70;;;;;;6246796;28;20116;-76
2021/06/25 13:32:03;;;;;;;15.55;11.65;;;24.70;71.80;;;;;;6246194;28;20196;-76
2021/06/25 13:35:07;;;;;;;17.25;14.18;;;24.90;69.50;;;;;;6246319;28;20566;-76
2021/06/25 13:38:20;;;;;;;15.30;13.75;;;25.00;68.60;;;;;;6245901;28;20049;-77
2021/06/25 13:41:24;;;;;;;19.88;13.32;;;25.00;69.90;;;;;;6246508;28;20057;-78
2021/06/25 13:44:29;;;;;;;16.35;13.55;;;24.90;70.60;;;;;;6246168;28;20120;-77
2021/06/25 13:47:35;;;;;;;17.88;13.75;;;24.90;70.90;;;;;;6246047;28;20045;-77
2021/06/25 13:50:47;;;;;;;16.17;12.35;;;24.80;70.00;;;;;;6246208;28;20044;-76
2021/06/25 13:53:49;;;;;;;12.73;11.40;;;24.70;71.10;;;;;;6245822;28;20570;-77
2021/06/25 13:56:55;;;;;;;13.63;9.90;;;24.90;71.80;;;;;;6246573;28;20130;-79
2021/06/25 13:59:58;;;;;;;14.23;11.80;;;25.20;67.60;;;;;;6250362;28;20075;-78
2021/06/25 14:03:01;;;;;;;14.80;11.88;;;25.30;66.60;;;;;;6248659;28;20049;-76
2021/06/25 14:06:05;;;;;;;16.58;12.98;;;25.10;67.00;;;;;;6245779;28;20499;-77
2021/06/25 14:09:18;;;;;;;16.52;12.18;;;24.90;67.50;;;;;;6249757;28;20077;-76
2021/06/25 14:12:21;;;;;;;14.13;11.32;;;24.70;68.90;;;;;;6249309;28;20072;-78
2021/06/25 14:15:28;;;;;;;13.75;12.07;;;24.40;70.90;;;;;;6237277;28;20127;-77
2021/06/25 14:18:30;;;;;;;14.73;13.05;;;24.30;71.70;;;;;;6224583;28;20053;-77
2021/06/25 14:21:34;;;;;;;12.82;11.52;;;24.00;71.00;;;;;;6240583;28;20495;-76
2021/06/25 14:24:36;;;;;;;16.73;13.20;;;23.80;73.00;;;;;;6245393;28;20041;-76
2021/06/25 14:27:41;;;;;;;14.95;13.20;;;23.60;74.40;;;;;;6245594;28;20176;-77
2021/06/25 14:30:44;;;;;;;18.23;14.77;;;23.60;75.30;;;;;;6245155;28;20048;-77
2021/06/25 14:33:46;;;;;;;19.55;15.30;;;23.80;73.80;;;;;;6245796;28;20065;-77
2021/06/25 14:36:48;;;;;;;14.43;12.75;;;24.10;73.50;;;;;;6245963;28;20538;-77
2021/06/25 14:39:52;;;;;;;11.23;10.18;;;24.30;72.40;;;;;;6245252;28;20128;-77
2021/06/25 14:42:54;;;;;;;11.75;10.52;;;24.50;70.10;;;;;;6245403;28;20414;-76
2021/06/25 14:45:57;;;;;;;12.82;9.93;;;24.80;67.50;;;;;;6246189;28;20081;-75
2021/06/25 14:48:59;;;;;;;13.23;10.23;;;24.80;65.50;;;;;;6246426;28;20498;-77
2021/06/25 14:52:01;;;;;;;10.25;7.30;;;24.80;65.90;;;;;;6249905;28;20095;-77
2021/06/25 14:55:03;;;;;;;10.48;5.43;;;24.80;67.00;;;;;;6246665;28;20143;-77
2021/06/25 14:58:08;;;;;;;6.78;6.07;;;24.70;62.70;;;;;;6251210;28;20088;-75
2021/06/25 15:01:12;;;;;;;7.40;5.43;;;24.70;63.00;;;;;;6246967;28;20128;-77
2021/06/25 15:04:13;;;;;;;9.50;5.80;;;24.80;60.50;;;;;;6245797;28;20049;-77
2021/06/25 15:07:15;;;;;;;6.40;4.07;;;24.80;60.00;;;;;;6244930;28;20077;-77
2021/06/25 15:10:17;;;;;;;8.32;3.80;;;24.60;60.10;;;;;;6245790;28;20046;-77
2021/06/25 15:13:19;;;;;;;6.50;4.32;;;24.40;60.90;;;;;;6245570;28;20052;-76
2021/06/25 15:16:22;;;;;;;6.22;4.07;;;24.20;60.40;;;;;;6244924;28;20143;-77
2021/06/25 15:19:24;;;;;;;5.70;4.65;;;24.20;61.50;;;;;;6226795;28;20400;-77
2021/06/25 15:22:26;;;;;;;5.75;5.03;;;24.30;60.10;;;;;;6195125;28;20074;-77
2021/06/25 15:25:28;;;;;;;6.30;5.75;;;24.50;59.90;;;;;;6197710;28;20092;-77
2021/06/25 15:28:30;;;;;;;4.60;3.90;;;24.70;59.90;;;;;;6196438;28;20038;-76
2021/06/25 15:31:33;;;;;;;4.13;3.33;;;24.90;56.80;;;;;;6199263;28;20046;-77
2021/06/25 15:34:35;;;;;;;4.05;3.25;;;24.90;56.00;;;;;;6200550;28;20465;-76
2021/06/25 15:37:38;;;;;;;5.68;3.78;;;24.90;55.70;;;;;;6200788;28;20050;-77
2021/06/25 15:40:42;;;;;;;6.10;3.92;;;24.80;56.40;;;;;;6223915;28;20217;-77
2021/06/25 15:43:44;;;;;;;4.53;2.97;;;24.70;55.60;;;;;;6224406;28;20116;-76
2021/06/25 15:46:47;;;;;;;5.13;3.13;;;24.50;55.70;;;;;;6225476;28;20042;-76
2021/06/25 15:49:49;;;;;;;4.05;2.83;;;24.40;55.30;;;;;;6225994;28;20065;-77